createdAt,value
2019-01-16T00:02:27.222Z,79.60
2019-01-16T00:05:15.691Z,79.53
2019-01-16T00:08:16.313Z,79.48
2019-01-16T00:10:53.523Z,79.34
2019-01-16T00:13:29.605Z,79.55
2019-01-16T00:16:18.427Z,79.61
2019-01-16T00:19:05.799Z,79.48
2019-01-16T00:21:53.136Z,79.71
2019-01-16T00:24:48.196Z,79.73
2019-01-16T00:27:32.544Z,79.57
2019-01-16T00:30:18.969Z,79.45
2019-01-16T00:32:58.608Z,79.48
2019-01-16T00:35:36.456Z,79.44
2019-01-16T00:38:28.233Z,79.47
2019-01-16T00:41:14.856Z,79.42
2019-01-16T00:43:57.584Z,79.55
2019-01-16T00:46:36.821Z,79.46
2019-01-16T00:49:28.086Z,79.57
2019-01-16T00:52:22.704Z,79.46
2019-01-16T00:55:14.445Z,79.38
2019-01-16T00:58:01.865Z,79.66
2019-01-16T01:00:41.460Z,79.67
2019-01-16T01:03:29.094Z,79.68
2019-01-16T01:06:18.508Z,79.77
2019-01-16T01:08:55.733Z,79.78
2019-01-16T01:11:34.492Z,79.56
2019-01-16T01:14:27.513Z,79.52
2019-01-16T01:17:14.617Z,79.56
2019-01-16T01:20:18.491Z,79.48
2019-01-16T01:23:01.234Z,79.62
2019-01-16T01:25:53.077Z,79.69
2019-01-16T01:28:37.710Z,79.56
2019-01-16T01:31:16.708Z,79.52
2019-01-16T01:34:04.116Z,79.53
2019-01-16T01:36:44.672Z,79.66
2019-01-16T01:39:45.396Z,79.75
2019-01-16T01:42:32.936Z,79.79
2019-01-16T01:45:29.566Z,79.88
2019-01-16T01:48:24.930Z,79.84
2019-01-16T01:51:13.627Z,80.05
2019-01-16T01:54:01.332Z,80.00
2019-01-16T01:57:05.569Z,79.90
2019-01-16T01:59:54.261Z,80.04
2019-01-16T02:02:41.682Z,80.09
2019-01-16T02:05:29.584Z,79.98
2019-01-16T02:08:09.508Z,79.80
2019-01-16T02:11:03.211Z,79.77
2019-01-16T02:13:45.101Z,79.85
2019-01-16T02:16:32.481Z,79.83
2019-01-16T02:19:09.476Z,79.89
2019-01-16T02:22:01.442Z,79.94
2019-01-16T02:24:49.013Z,79.71
2019-01-16T02:30:32.338Z,79.62
2019-01-16T02:33:19.846Z,79.53
2019-01-16T02:36:08.688Z,79.60
2019-01-16T02:39:00.079Z,79.54
2019-01-16T02:41:38.744Z,79.73
2019-01-16T02:44:23.173Z,79.71
2019-01-16T02:47:19.521Z,79.79
2019-01-16T02:50:13.880Z,79.75
2019-01-16T02:53:00.924Z,79.86
2019-01-16T02:55:48.567Z,79.86
2019-01-16T02:58:29.917Z,79.87
2019-01-16T03:01:14.965Z,79.71
2019-01-16T03:04:02.423Z,79.65
2019-01-16T03:06:49.780Z,79.67
2019-01-16T03:09:29.590Z,79.37
2019-01-16T03:12:33.717Z,79.35
2019-01-16T03:15:34.622Z,79.31
2019-01-16T03:18:35.640Z,79.38
2019-01-16T03:21:19.029Z,79.49
2019-01-16T03:24:17.710Z,79.35
2019-01-16T03:27:04.833Z,79.54
2019-01-16T03:29:52.225Z,79.59
2019-01-16T03:32:36.146Z,79.58
2019-01-16T03:35:39.761Z,79.73
2019-01-16T03:38:43.654Z,79.71
2019-01-16T03:41:41.598Z,79.74
2019-01-16T03:44:25.489Z,79.84
2019-01-16T03:47:14.169Z,79.91
2019-01-16T03:49:55.769Z,80.11
2019-01-16T03:52:47.379Z,80.02
2019-01-16T03:55:51.187Z,80.06
2019-01-16T04:02:00.617Z,80.18
2019-01-16T04:04:39.657Z,80.26
2019-01-16T04:07:26.938Z,80.42
2019-01-16T04:10:10.030Z,80.42
2019-01-16T04:12:50.956Z,80.47
2019-01-16T04:15:51.954Z,80.43
2019-01-16T04:18:42.885Z,80.56
2019-01-16T04:21:34.940Z,80.20
2019-01-16T04:24:24.696Z,80.45
2019-01-16T04:27:06.197Z,80.34
2019-01-16T04:30:03.889Z,80.50
2019-01-16T04:32:51.168Z,80.49
2019-01-16T04:35:38.212Z,80.54
2019-01-16T04:38:25.596Z,80.49
2019-01-16T04:41:04.230Z,80.21
2019-01-16T04:44:04.306Z,80.35
2019-01-16T04:46:51.866Z,80.41
2019-01-16T04:49:46.560Z,80.43
2019-01-16T04:52:27.460Z,80.34
2019-01-16T04:55:22.321Z,80.59
2019-01-16T04:58:02.001Z,80.70
2019-01-16T05:00:50.874Z,80.58
2019-01-16T05:03:31.391Z,80.85
2019-01-16T05:06:18.753Z,81.01
2019-01-16T05:09:01.632Z,81.26
2019-01-16T05:11:46.084Z,81.85
2019-01-16T05:14:41.431Z,82.55
2019-01-16T05:17:30.525Z,83.06
2019-01-16T05:20:18.121Z,83.71
2019-01-16T05:23:06.132Z,84.12
2019-01-16T05:25:48.866Z,84.18
2019-01-16T05:28:46.479Z,84.44
2019-01-16T05:31:33.583Z,84.52
2019-01-16T05:34:39.352Z,84.68
2019-01-16T05:37:28.102Z,84.97
2019-01-16T05:40:28.787Z,85.23
2019-01-16T05:43:20.500Z,85.33
2019-01-16T05:46:07.564Z,85.50
2019-01-16T05:49:02.396Z,85.83
2019-01-16T05:51:54.143Z,85.65
2019-01-16T05:54:44.566Z,85.74
2019-01-16T05:57:39.327Z,85.60
2019-01-16T06:00:39.345Z,85.74
2019-01-16T06:03:46.344Z,85.81
2019-01-16T06:06:35.321Z,85.89
2019-01-16T06:09:25.721Z,85.89
2019-01-16T06:12:14.701Z,85.84
2019-01-16T06:18:14.368Z,85.81
2019-01-16T06:20:54.732Z,85.97
2019-01-16T06:23:42.226Z,85.83
2019-01-16T06:26:21.805Z,85.93
2019-01-16T06:29:17.078Z,85.57
2019-01-16T06:32:17.474Z,85.63
2019-01-16T06:35:04.714Z,85.78
2019-01-16T06:40:58.137Z,85.76
2019-01-16T06:43:45.437Z,86.05
2019-01-16T06:46:25.496Z,86.00
2019-01-16T06:49:14.318Z,86.08
2019-01-16T06:51:51.074Z,86.08
2019-01-16T06:54:38.767Z,86.23
2019-01-16T06:57:28.993Z,86.21
2019-01-16T07:00:23.636Z,86.24
2019-01-16T07:03:18.518Z,86.20
2019-01-16T07:06:05.751Z,86.01
2019-01-16T07:09:00.303Z,85.99
2019-01-16T07:11:57.941Z,86.12
2019-01-16T07:14:45.277Z,86.05
2019-01-16T07:17:32.712Z,86.21
2019-01-16T07:20:17.475Z,85.98
2019-01-16T07:22:55.382Z,85.89
2019-01-16T07:25:49.880Z,85.96
2019-01-16T07:28:42.925Z,85.57
2019-01-16T07:31:25.076Z,85.28
2019-01-16T07:34:13.005Z,85.18
2019-01-16T07:36:52.680Z,84.89
2019-01-16T07:39:36.297Z,84.49
2019-01-16T07:42:31.147Z,84.57
2019-01-16T07:45:25.999Z,84.44
2019-01-16T07:48:23.712Z,84.20
2019-01-16T07:51:12.666Z,84.36
2019-01-16T07:54:13.821Z,84.08
2019-01-16T07:56:57.080Z,83.72
2019-01-16T07:59:47.359Z,83.69
2019-01-16T08:02:34.754Z,83.38
2019-01-16T08:05:23.099Z,83.42
2019-01-16T08:08:15.878Z,82.89
2019-01-16T08:10:59.815Z,82.53
2019-01-16T08:13:48.326Z,82.85
2019-01-16T08:16:45.875Z,82.78
2019-01-16T08:19:33.759Z,82.63
2019-01-16T08:22:25.772Z,82.48
2019-01-16T08:25:11.840Z,82.32
2019-01-16T08:27:56.068Z,82.64
2019-01-16T08:30:43.568Z,82.34
2019-01-16T08:33:32.526Z,81.89
2019-01-16T08:36:19.837Z,82.09
2019-01-16T08:39:07.012Z,82.81
2019-01-16T08:42:22.583Z,83.00
2019-01-16T08:45:09.963Z,83.62
2019-01-16T08:47:58.832Z,83.72
2019-01-16T08:50:55.218Z,83.59
2019-01-16T08:53:38.582Z,83.62
2019-01-16T08:56:33.596Z,83.62
2019-01-16T08:59:21.023Z,83.92
2019-01-16T09:02:19.863Z,84.81
2019-01-16T09:05:08.633Z,84.11
2019-01-16T09:08:25.106Z,84.24
2019-01-16T09:11:28.901Z,84.30
2019-01-16T09:14:20.664Z,83.97
2019-01-16T09:17:05.235Z,83.71
2019-01-16T09:19:44.703Z,83.48
2019-01-16T09:22:24.671Z,83.08
2019-01-16T09:25:11.992Z,83.00
2019-01-16T09:28:02.841Z,82.69
2019-01-16T09:30:54.962Z,82.74
2019-01-16T09:33:46.784Z,82.65
2019-01-16T09:36:37.749Z,82.59
2019-01-16T09:39:28.431Z,82.58
2019-01-16T09:42:06.940Z,82.03
2019-01-16T09:44:55.799Z,81.90
2019-01-16T09:47:44.604Z,81.68
2019-01-16T09:50:32.621Z,81.37
2019-01-16T09:53:30.482Z,81.22
2019-01-16T09:56:09.104Z,80.65
2019-01-16T09:58:52.383Z,80.40
2019-01-16T10:01:48.336Z,79.45
2019-01-16T10:04:36.970Z,79.88
2019-01-16T10:07:14.871Z,79.19
2019-01-16T10:10:02.164Z,79.01
2019-01-16T10:12:49.455Z,78.28
2019-01-16T10:15:37.066Z,78.39
2019-01-16T10:18:32.013Z,78.83
2019-01-16T10:21:18.456Z,78.29
2019-01-16T10:24:22.405Z,78.43
2019-01-16T10:27:09.569Z,77.86
2019-01-16T10:30:01.248Z,77.31
2019-01-16T10:32:47.491Z,77.14
2019-01-16T10:35:32.188Z,76.71
2019-01-16T10:38:11.653Z,76.82
2019-01-16T10:41:25.409Z,76.91
2019-01-16T10:44:01.554Z,77.46
2019-01-16T10:46:53.281Z,77.44
2019-01-16T10:49:41.336Z,77.60
2019-01-16T10:52:30.249Z,77.43
2019-01-16T10:55:27.982Z,77.64
2019-01-16T10:58:37.433Z,77.85
2019-01-16T11:01:37.919Z,77.40
2019-01-16T11:04:29.734Z,77.18
2019-01-16T11:07:16.956Z,77.11
2019-01-16T11:09:59.839Z,76.98
2019-01-16T11:12:43.212Z,77.00
2019-01-16T11:15:34.970Z,76.81
2019-01-16T11:18:19.292Z,76.69
2019-01-16T11:21:11.089Z,76.70
2019-01-16T11:23:58.686Z,76.79
2019-01-16T11:26:48.528Z,76.77
2019-01-16T11:29:51.750Z,76.59
2019-01-16T11:32:43.346Z,76.66
2019-01-16T11:35:47.588Z,77.32
2019-01-16T11:38:39.568Z,77.03
2019-01-16T11:41:23.786Z,76.76
2019-01-16T11:44:09.400Z,76.28
2019-01-16T11:47:05.972Z,76.57
2019-01-16T11:49:51.533Z,77.19
2019-01-16T11:52:39.617Z,76.59
2019-01-16T11:55:39.628Z,76.89
2019-01-16T11:58:25.373Z,76.95
2019-01-16T12:01:20.159Z,76.30
2019-01-16T12:04:20.897Z,76.37
2019-01-16T12:07:08.215Z,75.83
2019-01-16T12:09:51.281Z,76.22
2019-01-16T12:12:33.212Z,76.53
2019-01-16T12:15:25.193Z,76.06
2019-01-16T12:18:06.632Z,75.76
2019-01-16T12:21:00.737Z,75.76
2019-01-16T12:23:58.570Z,75.55
2019-01-16T12:26:49.277Z,75.79
2019-01-16T12:29:31.236Z,75.61
2019-01-16T12:32:31.640Z,75.63
2019-01-16T12:35:19.349Z,75.11
2019-01-16T12:38:02.633Z,75.28
2019-01-16T12:41:15.601Z,75.64
2019-01-16T12:44:02.957Z,75.50
2019-01-16T12:46:54.745Z,75.27
2019-01-16T12:49:55.528Z,75.59
2019-01-16T12:52:43.944Z,75.59
2019-01-16T12:55:28.305Z,74.88
2019-01-16T12:58:15.985Z,74.41
2019-01-16T13:01:05.045Z,74.18
2019-01-16T13:04:12.432Z,74.55
2019-01-16T13:07:15.953Z,74.41
2019-01-16T13:10:03.493Z,74.11
2019-01-16T13:12:53.427Z,74.56
2019-01-16T13:15:48.795Z,74.41
2019-01-16T13:18:30.769Z,73.96
2019-01-16T13:21:10.058Z,73.88
2019-01-16T13:24:01.626Z,73.63
2019-01-16T13:26:49.402Z,74.24
2019-01-16T13:29:41.261Z,74.36
2019-01-16T13:32:48.447Z,74.47
2019-01-16T13:35:37.575Z,73.96
2019-01-16T13:38:28.949Z,73.75
2019-01-16T13:41:23.855Z,73.70
2019-01-16T13:44:17.475Z,73.81
2019-01-16T13:46:56.583Z,73.64
2019-01-16T13:50:03.527Z,73.89
2019-01-16T13:52:58.351Z,73.28
2019-01-16T13:55:49.865Z,73.02
2019-01-16T13:58:47.755Z,72.71
2019-01-16T14:01:29.043Z,72.91
2019-01-16T14:04:27.235Z,72.67
2019-01-16T14:07:04.374Z,72.78
2019-01-16T14:09:44.144Z,72.68
2019-01-16T14:12:35.875Z,72.36
2019-01-16T14:15:27.534Z,71.83
2019-01-16T14:18:19.294Z,72.08
2019-01-16T14:21:10.966Z,72.28
2019-01-16T14:23:47.935Z,71.70
2019-01-16T14:26:42.713Z,72.18
2019-01-16T14:29:33.070Z,72.13
2019-01-16T14:32:22.165Z,71.71
2019-01-16T14:35:10.363Z,72.48
2019-01-16T14:37:59.568Z,72.54
2019-01-16T14:40:46.739Z,72.65
2019-01-16T14:43:43.665Z,72.22
2019-01-16T14:46:35.303Z,72.31
2019-01-16T14:49:21.763Z,72.18
2019-01-16T14:51:59.775Z,72.23
2019-01-16T14:54:46.285Z,72.27
2019-01-16T14:57:33.942Z,72.18
2019-01-16T15:00:18.533Z,72.05
2019-01-16T15:06:05.060Z,72.46
2019-01-16T15:08:54.463Z,72.13
2019-01-16T15:11:41.818Z,72.60
2019-01-16T15:14:45.467Z,72.21
2019-01-16T15:17:40.407Z,72.27
2019-01-16T15:20:48.109Z,72.41
2019-01-16T15:23:35.143Z,72.41
2019-01-16T15:26:16.446Z,71.94
2019-01-16T15:28:54.785Z,71.97
2019-01-16T15:31:33.623Z,71.85
2019-01-16T15:34:20.911Z,71.87
2019-01-16T15:37:17.231Z,71.98
2019-01-16T15:40:04.307Z,72.04
2019-01-16T15:42:49.820Z,72.11
2019-01-16T15:45:44.788Z,72.27
2019-01-16T15:48:33.516Z,72.24
2019-01-16T15:51:20.273Z,72.06
2019-01-16T15:54:15.312Z,71.94
2019-01-16T15:57:02.693Z,72.23
2019-01-16T15:59:45.536Z,72.44
2019-01-16T16:02:30.048Z,71.90
2019-01-16T16:05:19.605Z,72.06
2019-01-16T16:08:22.177Z,72.15
2019-01-16T16:11:16.870Z,72.22
2019-01-16T16:14:08.204Z,71.93
2019-01-16T16:16:49.215Z,72.27
2019-01-16T16:19:43.756Z,72.28
2019-01-16T16:22:44.485Z,72.50
2019-01-16T16:25:31.940Z,72.31
2019-01-16T16:28:23.764Z,72.23
2019-01-16T16:31:02.234Z,72.32
2019-01-16T16:33:50.968Z,72.21
2019-01-16T16:36:37.156Z,72.29
2019-01-16T16:39:36.444Z,72.43
2019-01-16T16:42:14.409Z,72.55
2019-01-16T16:45:04.481Z,72.21
2019-01-16T16:48:06.463Z,72.25
2019-01-16T16:51:07.728Z,72.25
2019-01-16T16:53:54.943Z,72.00
2019-01-16T16:56:44.051Z,71.92
2019-01-16T16:59:28.901Z,72.07
2019-01-16T17:02:23.989Z,72.07
2019-01-16T17:05:13.391Z,72.65
2019-01-16T17:08:01.039Z,72.67
2019-01-16T17:10:57.279Z,72.34
2019-01-16T17:13:34.947Z,72.44
2019-01-16T17:16:24.411Z,72.24
2019-01-16T17:19:13.139Z,72.51
2019-01-16T17:22:10.284Z,72.56
2019-01-16T17:24:57.686Z,72.74
2019-01-16T17:28:04.622Z,72.43
2019-01-16T17:31:02.189Z,72.50
2019-01-16T17:33:50.875Z,72.37
2019-01-16T17:36:35.271Z,72.72
2019-01-16T17:39:25.750Z,72.74
2019-01-16T17:42:03.810Z,72.72
2019-01-16T17:45:10.703Z,72.78
2019-01-16T17:48:02.672Z,72.64
2019-01-16T17:50:45.114Z,72.69
2019-01-16T17:53:43.317Z,72.52
2019-01-16T17:56:32.081Z,72.63
2019-01-16T17:59:28.669Z,72.74
2019-01-16T18:02:16.007Z,72.58
2019-01-16T18:04:58.828Z,72.34
2019-01-16T18:10:43.416Z,72.36
2019-01-16T18:13:41.155Z,72.50
2019-01-16T18:16:42.675Z,72.33
2019-01-16T18:19:32.974Z,72.21
2019-01-16T18:22:25.988Z,72.29
2019-01-16T18:25:15.483Z,72.51
2019-01-16T18:28:10.683Z,72.41
2019-01-16T18:31:06.256Z,72.46
2019-01-16T18:34:04.284Z,72.31
2019-01-16T18:36:48.372Z,72.25
2019-01-16T18:39:40.157Z,72.27
2019-01-16T18:45:12.972Z,72.23
2019-01-16T18:48:04.315Z,72.21
2019-01-16T18:54:19.756Z,72.20
2019-01-16T18:57:06.523Z,72.44
2019-01-16T18:59:48.203Z,72.20
2019-01-16T19:02:31.299Z,72.24
2019-01-16T19:05:18.609Z,72.17
2019-01-16T19:08:09.306Z,72.27
2019-01-16T19:11:00.863Z,72.18
2019-01-16T19:13:47.160Z,72.03
2019-01-16T19:16:38.768Z,72.25
2019-01-16T19:19:40.015Z,72.16
2019-01-16T19:22:28.066Z,72.19
2019-01-16T19:25:32.892Z,72.14
2019-01-16T19:28:35.728Z,72.33
2019-01-16T19:31:25.896Z,72.01
2019-01-16T19:34:20.204Z,72.20
2019-01-16T19:37:07.451Z,72.34
2019-01-16T19:39:55.304Z,72.45
2019-01-16T19:42:44.952Z,72.54
2019-01-16T19:45:33.754Z,72.55
2019-01-16T19:48:40.825Z,72.67
2019-01-16T19:51:32.423Z,72.59
2019-01-16T19:54:23.949Z,72.48
2019-01-16T19:57:09.396Z,72.26
2019-01-16T19:59:54.241Z,72.51
2019-01-16T20:02:47.985Z,72.42
2019-01-16T20:05:41.152Z,72.41
2019-01-16T20:08:20.591Z,72.68
2019-01-16T20:11:05.361Z,72.68
2019-01-16T20:13:52.596Z,72.74
2019-01-16T20:16:46.415Z,72.96
2019-01-16T20:19:33.996Z,73.15
2019-01-16T20:22:22.431Z,73.26
2019-01-16T20:25:26.516Z,73.48
2019-01-16T20:28:21.824Z,73.64
2019-01-16T20:31:04.420Z,73.61
2019-01-16T20:33:47.907Z,73.78
2019-01-16T20:36:36.980Z,73.98
2019-01-16T20:39:27.498Z,73.82
2019-01-16T20:42:16.435Z,73.65
2019-01-16T20:44:54.567Z,73.70
2019-01-16T20:47:34.052Z,73.65
2019-01-16T20:50:22.308Z,73.65
2019-01-16T20:53:17.583Z,73.83
2019-01-16T20:56:03.438Z,74.01
2019-01-16T20:58:55.440Z,73.45
2019-01-16T21:01:47.126Z,73.59
2019-01-16T21:04:26.003Z,73.69
2019-01-16T21:07:26.949Z,73.90
2019-01-16T21:10:09.709Z,73.80
2019-01-16T21:13:07.559Z,73.49
2019-01-16T21:15:52.951Z,73.66
2019-01-16T21:18:32.447Z,73.99
2019-01-16T21:21:31.912Z,74.26
2019-01-16T21:24:21.672Z,75.04
2019-01-16T21:27:18.015Z,75.57
2019-01-16T21:30:10.011Z,76.03
2019-01-16T21:32:57.713Z,76.33
2019-01-16T21:35:45.859Z,76.39
2019-01-16T21:38:33.409Z,76.53
2019-01-16T21:41:30.194Z,76.77
2019-01-16T21:44:23.450Z,77.09
2019-01-16T21:47:23.180Z,77.23
2019-01-16T21:50:06.475Z,76.92
2019-01-16T21:52:43.406Z,77.29
2019-01-16T21:55:25.835Z,77.21
2019-01-16T21:58:11.604Z,77.54
2019-01-16T22:01:04.123Z,77.36
2019-01-16T22:03:51.596Z,77.52
2019-01-16T22:06:38.188Z,77.56
2019-01-16T22:09:16.569Z,77.71
2019-01-16T22:12:05.360Z,77.62
2019-01-16T22:14:57.079Z,77.66
2019-01-16T22:17:41.380Z,77.83
2019-01-16T22:20:39.337Z,78.10
2019-01-16T22:23:26.972Z,78.62
2019-01-16T22:26:15.984Z,78.99
2019-01-16T22:29:03.383Z,79.98
2019-01-16T22:31:50.988Z,80.40
2019-01-16T22:34:38.501Z,81.03
2019-01-16T22:37:36.740Z,81.58
2019-01-16T22:40:22.483Z,82.02
2019-01-16T22:43:09.027Z,82.46
2019-01-16T22:45:52.850Z,82.78
2019-01-16T22:48:33.378Z,82.69
2019-01-16T22:51:28.414Z,82.83
2019-01-16T22:54:11.286Z,83.08
2019-01-16T22:57:09.137Z,83.36
2019-01-16T22:59:57.677Z,83.65
2019-01-16T23:02:50.277Z,83.65
2019-01-16T23:05:38.155Z,83.71
2019-01-16T23:08:32.764Z,84.03
2019-01-16T23:11:22.489Z,84.16
2019-01-16T23:14:15.005Z,84.37
2019-01-16T23:17:18.940Z,84.62
2019-01-16T23:20:10.170Z,84.68
2019-01-16T23:22:48.422Z,84.75
2019-01-16T23:25:43.572Z,84.81
2019-01-16T23:28:39.902Z,84.84
2019-01-16T23:31:28.735Z,84.95
2019-01-16T23:34:16.145Z,84.92
2019-01-16T23:37:10.273Z,85.00
2019-01-16T23:39:57.444Z,85.02
2019-01-16T23:42:45.227Z,85.15
2019-01-16T23:45:32.999Z,85.27
2019-01-16T23:48:20.601Z,84.91
2019-01-16T23:51:15.186Z,85.10
2019-01-16T23:54:13.132Z,85.19
2019-01-16T23:57:07.855Z,85.34
2019-01-16T23:59:56.921Z,85.46
